sensor_id;sensor_type;location;lat;lon;timestamp;pressure;altitude;pressure_sealevel;temperature;humidity
23361;BME280;11852;50.082;18.554;2023-02-10T00:00:06;100291.0;;;-1.5;64.39
23361;BME280;11852;50.082;18.554;2023-02-10T00:01:17;100290.0;;;-1.56;64.66
23361;BME280;11852;50.082;18.554;2023-02-10T00:02:23;100282.0;;;-1.7;65.0
23361;BME280;11852;50.082;18.554;2023-02-10T00:03:31;100282.49;;;-1.61;64.75
23361;BME280;11852;50.082;18.554;2023-02-10T00:04:37;100280.01;;;-1.72;65.18
23361;BME280;11852;50.082;18.554;2023-02-10T00:05:44;100279.0;;;-1.71;65.22
23361;BME280;11852;50.082;18.554;2023-02-10T00:06:53;100278.5;;;-1.7;65.17
23361;BME280;11852;50.082;18.554;2023-02-10T00:08:00;100277.5;;;-1.69;65.12
23361;BME280;11852;50.082;18.554;2023-02-10T00:09:09;100272.0;;;-1.7;65.13
23361;BME280;11852;50.082;18.554;2023-02-10T00:10:14;100274.5;;;-1.53;64.57
23361;BME280;11852;50.082;18.554;2023-02-10T00:11:27;100276.5;;;-1.62;64.85
23361;BME280;11852;50.082;18.554;2023-02-10T00:12:35;100274.5;;;-1.7;64.99
23361;BME280;11852;50.082;18.554;2023-02-10T00:13:42;100275.0;;;-1.61;64.75
23361;BME280;11852;50.082;18.554;2023-02-10T00:14:50;100278.5;;;-1.68;64.87
23361;BME280;11852;50.082;18.554;2023-02-10T00:15:57;100274.5;;;-1.6;64.63
23361;BME280;11852;50.082;18.554;2023-02-10T00:17:04;100268.5;;;-1.64;64.75
23361;BME280;11852;50.082;18.554;2023-02-10T00:18:11;100272.0;;;-1.67;64.85
23361;BME280;11852;50.082;18.554;2023-02-10T00:19:19;100264.5;;;-1.74;65.04
23361;BME280;11852;50.082;18.554;2023-02-10T00:20:25;100261.5;;;-1.7;64.9
23361;BME280;11852;50.082;18.554;2023-02-10T00:21:33;100254.0;;;-1.68;64.81
23361;BME280;11852;50.082;18.554;2023-02-10T00:22:42;100252.5;;;-1.73;64.94
23361;BME280;11852;50.082;18.554;2023-02-10T00:23:49;100247.0;;;-1.72;64.74
23361;BME280;11852;50.082;18.554;2023-02-10T00:24:56;100243.0;;;-1.71;64.81
23361;BME280;11852;50.082;18.554;2023-02-10T00:26:05;100232.5;;;-1.63;64.68
23361;BME280;11852;50.082;18.554;2023-02-10T00:27:11;100230.01;;;-1.75;64.89
23361;BME280;11852;50.082;18.554;2023-02-10T00:28:19;100227.5;;;-1.73;64.9
23361;BME280;11852;50.082;18.554;2023-02-10T00:29:28;100219.5;;;-1.66;64.71
23361;BME280;11852;50.082;18.554;2023-02-10T00:30:36;100217.0;;;-1.65;64.67
23361;BME280;11852;50.082;18.554;2023-02-10T00:31:45;100217.5;;;-1.65;64.6
23361;BME280;11852;50.082;18.554;2023-02-10T00:32:55;100215.5;;;-1.7;64.68
23361;BME280;11852;50.082;18.554;2023-02-10T00:33:59;100219.5;;;-1.67;64.59
23361;BME280;11852;50.082;18.554;2023-02-10T00:35:08;100219.5;;;-1.7;64.51
23361;BME280;11852;50.082;18.554;2023-02-10T00:36:15;100228.0;;;-1.64;64.31
23361;BME280;11852;50.082;18.554;2023-02-10T00:37:22;100228.0;;;-1.63;64.42
23361;BME280;11852;50.082;18.554;2023-02-10T00:38:31;100223.5;;;-1.73;64.71
23361;BME280;11852;50.082;18.554;2023-02-10T00:39:42;100220.5;;;-1.7;64.55
23361;BME280;11852;50.082;18.554;2023-02-10T00:40:50;100217.51;;;-1.67;64.4
23361;BME280;11852;50.082;18.554;2023-02-10T00:41:58;100226.5;;;-1.69;64.28
23361;BME280;11852;50.082;18.554;2023-02-10T00:43:06;100236.5;;;-1.64;64.11
23361;BME280;11852;50.082;18.554;2023-02-10T00:44:13;100237.5;;;-1.75;64.26
23361;BME280;11852;50.082;18.554;2023-02-10T00:45:20;100237.5;;;-1.6;63.82
23361;BME280;11852;50.082;18.554;2023-02-10T00:46:27;100241.0;;;-1.62;63.98
23361;BME280;11852;50.082;18.554;2023-02-10T00:47:34;100238.5;;;-1.57;63.88
23361;BME280;11852;50.082;18.554;2023-02-10T00:48:40;100242.0;;;-1.64;63.86
23361;BME280;11852;50.082;18.554;2023-02-10T00:49:47;100240.5;;;-1.59;63.61
23361;BME280;11852;50.082;18.554;2023-02-10T00:50:56;100243.0;;;-1.6;63.85
23361;BME280;11852;50.082;18.554;2023-02-10T00:52:04;100239.5;;;-1.53;63.51
23361;BME280;11852;50.082;18.554;2023-02-10T00:53:12;100238.0;;;-1.6;63.94
23361;BME280;11852;50.082;18.554;2023-02-10T00:54:19;100240.0;;;-1.63;63.99
23361;BME280;11852;50.082;18.554;2023-02-10T00:55:26;100244.99;;;-1.63;63.82
23361;BME280;11852;50.082;18.554;2023-02-10T00:56:33;100252.0;;;-1.62;63.84
23361;BME280;11852;50.082;18.554;2023-02-10T00:57:40;100246.5;;;-1.7;64.07
23361;BME280;11852;50.082;18.554;2023-02-10T00:58:47;100249.5;;;-1.56;63.76
23361;BME280;11852;50.082;18.554;2023-02-10T00:59:54;100242.51;;;-1.7;63.99
23361;BME280;11852;50.082;18.554;2023-02-10T01:01:01;100251.0;;;-1.66;63.95
23361;BME280;11852;50.082;18.554;2023-02-10T01:02:07;100253.0;;;-1.63;63.99
23361;BME280;11852;50.082;18.554;2023-02-10T01:03:15;100255.0;;;-1.5;63.69
23361;BME280;11852;50.082;18.554;2023-02-10T01:04:25;100248.5;;;-1.63;63.97
23361;BME280;11852;50.082;18.554;2023-02-10T01:05:31;100249.5;;;-1.59;63.75
23361;BME280;11852;50.082;18.554;2023-02-10T01:06:39;100248.0;;;-1.7;64.18
23361;BME280;11852;50.082;18.554;2023-02-10T01:07:46;100245.49;;;-1.7;64.19
23361;BME280;11852;50.082;18.554;2023-02-10T01:08:57;100247.0;;;-1.67;64.11
23361;BME280;11852;50.082;18.554;2023-02-10T01:10:09;100247.5;;;-1.78;64.35
23361;BME280;11852;50.082;18.554;2023-02-10T01:11:16;100254.5;;;-1.76;64.33
23361;BME280;11852;50.082;18.554;2023-02-10T01:12:25;100258.0;;;-1.7;64.25
23361;BME280;11852;50.082;18.554;2023-02-10T01:13:32;100257.49;;;-1.74;64.54
23361;BME280;11852;50.082;18.554;2023-02-10T01:14:40;100256.5;;;-1.77;64.53
23361;BME280;11852;50.082;18.554;2023-02-10T01:15:47;100252.5;;;-1.72;64.44
23361;BME280;11852;50.082;18.554;2023-02-10T01:16:55;100251.0;;;-1.73;64.32
23361;BME280;11852;50.082;18.554;2023-02-10T01:18:02;100255.5;;;-1.71;64.5
23361;BME280;11852;50.082;18.554;2023-02-10T01:19:09;100258.5;;;-1.83;64.73
23361;BME280;11852;50.082;18.554;2023-02-10T01:20:16;100252.5;;;-1.8;64.57
23361;BME280;11852;50.082;18.554;2023-02-10T01:21:23;100252.0;;;-1.81;64.68
23361;BME280;11852;50.082;18.554;2023-02-10T01:22:31;100250.0;;;-1.96;65.13
23361;BME280;11852;50.082;18.554;2023-02-10T01:23:37;100252.0;;;-1.81;64.81
23361;BME280;11852;50.082;18.554;2023-02-10T01:24:44;100255.5;;;-1.81;64.81
23361;BME280;11852;50.082;18.554;2023-02-10T01:25:53;100259.0;;;-1.82;64.71
23361;BME280;11852;50.082;18.554;2023-02-10T01:27:00;100262.0;;;-1.72;64.51
23361;BME280;11852;50.082;18.554;2023-02-10T01:28:09;100255.5;;;-1.73;64.65
23361;BME280;11852;50.082;18.554;2023-02-10T01:29:17;100254.0;;;-1.81;64.94
23361;BME280;11852;50.082;18.554;2023-02-10T01:30:25;100251.5;;;-1.74;64.74
23361;BME280;11852;50.082;18.554;2023-02-10T01:31:32;100251.0;;;-1.87;65.07
23361;BME280;11852;50.082;18.554;2023-02-10T01:32:40;100245.49;;;-1.81;64.94
23361;BME280;11852;50.082;18.554;2023-02-10T01:33:51;100244.5;;;-2.05;65.43
23361;BME280;11852;50.082;18.554;2023-02-10T01:34:57;100240.0;;;-1.95;65.08
23361;BME280;11852;50.082;18.554;2023-02-10T01:36:05;100243.5;;;-1.85;64.87
23361;BME280;11852;50.082;18.554;2023-02-10T01:37:12;100243.5;;;-1.81;64.72
23361;BME280;11852;50.082;18.554;2023-02-10T01:38:19;100241.5;;;-1.83;64.82
23361;BME280;11852;50.082;18.554;2023-02-10T01:39:27;100236.0;;;-1.89;64.99
23361;BME280;11852;50.082;18.554;2023-02-10T01:40:34;100238.5;;;-1.93;65.17
23361;BME280;11852;50.082;18.554;2023-02-10T01:41:42;100230.0;;;-1.88;64.92
23361;BME280;11852;50.082;18.554;2023-02-10T01:42:51;100236.5;;;-1.86;64.99
23361;BME280;11852;50.082;18.554;2023-02-10T01:44:04;100234.0;;;-1.94;65.16
23361;BME280;11852;50.082;18.554;2023-02-10T01:46:32;100237.5;;;-1.86;64.88
23361;BME280;11852;50.082;18.554;2023-02-10T01:47:35;100237.0;;;-1.84;64.88
23361;BME280;11852;50.082;18.554;2023-02-10T01:48:42;100243.5;;;-1.85;65.06
23361;BME280;11852;50.082;18.554;2023-02-10T01:49:50;100238.0;;;-1.77;64.9
23361;BME280;11852;50.082;18.554;2023-02-10T01:50:59;100240.5;;;-1.88;65.17
23361;BME280;11852;50.082;18.554;2023-02-10T01:52:08;100245.0;;;-1.85;65.23
23361;BME280;11852;50.082;18.554;2023-02-10T01:53:12;100245.49;;;-1.84;65.18
23361;BME280;11852;50.082;18.554;2023-02-10T01:54:20;100255.0;;;-1.78;65.11
23361;BME280;11852;50.082;18.554;2023-02-10T01:55:30;100255.5;;;-1.8;64.92
23361;BME280;11852;50.082;18.554;2023-02-10T01:56:35;100257.5;;;-1.7;64.79
23361;BME280;11852;50.082;18.554;2023-02-10T01:57:43;100261.5;;;-1.78;65.07
23361;BME280;11852;50.082;18.554;2023-02-10T01:58:50;100257.0;;;-1.66;64.77
23361;BME280;11852;50.082;18.554;2023-02-10T01:59:58;100256.49;;;-1.63;64.7
23361;BME280;11852;50.082;18.554;2023-02-10T02:01:05;100247.0;;;-1.78;65.07
23361;BME280;11852;50.082;18.554;2023-02-10T02:02:13;100248.0;;;-1.83;65.01
23361;BME280;11852;50.082;18.554;2023-02-10T02:03:21;100245.49;;;-1.82;64.97
23361;BME280;11852;50.082;18.554;2023-02-10T02:04:28;100248.5;;;-1.89;65.24
23361;BME280;11852;50.082;18.554;2023-02-10T02:05:37;100247.5;;;-1.84;65.11
23361;BME280;11852;50.082;18.554;2023-02-10T02:06:43;100248.5;;;-1.92;65.29
23361;BME280;11852;50.082;18.554;2023-02-10T02:07:49;100248.0;;;-2.08;65.57
23361;BME280;11852;50.082;18.554;2023-02-10T02:08:57;100249.5;;;-1.93;65.01
23361;BME280;11852;50.082;18.554;2023-02-10T02:10:05;100250.5;;;-1.92;64.87
23361;BME280;11852;50.082;18.554;2023-02-10T02:12:32;100248.5;;;-1.97;65.06
23361;BME280;11852;50.082;18.554;2023-02-10T02:14:57;100252.5;;;-1.87;64.77
23361;BME280;11852;50.082;18.554;2023-02-10T02:18:47;100255.01;;;-1.73;64.47
23361;BME280;11852;50.082;18.554;2023-02-10T02:20:04;100255.0;;;-1.67;64.42
23361;BME280;11852;50.082;18.554;2023-02-10T02:21:14;100253.0;;;-1.71;64.64
23361;BME280;11852;50.082;18.554;2023-02-10T02:22:27;100249.5;;;-1.81;64.78
23361;BME280;11852;50.082;18.554;2023-02-10T02:32:19;100236.0;;;-2.03;65.45
23361;BME280;11852;50.082;18.554;2023-02-10T02:33:31;100235.5;;;-2.03;65.57
23361;BME280;11852;50.082;18.554;2023-02-10T02:34:39;100234.0;;;-1.99;65.43
23361;BME280;11852;50.082;18.554;2023-02-10T02:36:08;100232.5;;;-2.05;65.54
23361;BME280;11852;50.082;18.554;2023-02-10T02:37:03;100229.51;;;-2.01;65.46
23361;BME280;11852;50.082;18.554;2023-02-10T02:38:08;100223.5;;;-1.98;65.31
23361;BME280;11852;50.082;18.554;2023-02-10T02:39:15;100220.5;;;-2.06;65.46
23361;BME280;11852;50.082;18.554;2023-02-10T02:40:22;100217.51;;;-2.05;65.52
23361;BME280;11852;50.082;18.554;2023-02-10T02:41:29;100215.5;;;-2.09;65.55
23361;BME280;11852;50.082;18.554;2023-02-10T02:42:35;100214.5;;;-2.13;65.63
23361;BME280;11852;50.082;18.554;2023-02-10T02:43:45;100215.0;;;-2.22;65.85
23361;BME280;11852;50.082;18.554;2023-02-10T02:47:41;100219.0;;;-2.08;65.25
23361;BME280;11852;50.082;18.554;2023-02-10T02:48:49;100224.0;;;-2.05;65.02
23361;BME280;11852;50.082;18.554;2023-02-10T02:52:27;100224.0;;;-2.04;65.01
23361;BME280;11852;50.082;18.554;2023-02-10T02:53:46;100226.0;;;-1.9;64.72
23361;BME280;11852;50.082;18.554;2023-02-10T02:54:46;100221.5;;;-2.05;64.97
23361;BME280;11852;50.082;18.554;2023-02-10T02:56:20;100222.5;;;-2.13;64.97
23361;BME280;11852;50.082;18.554;2023-02-10T02:57:11;100221.0;;;-2.03;64.66
23361;BME280;11852;50.082;18.554;2023-02-10T02:59:54;100218.51;;;-1.95;64.35
23361;BME280;11852;50.082;18.554;2023-02-10T03:00:39;100216.0;;;-2.04;64.58
23361;BME280;11852;50.082;18.554;2023-02-10T03:01:49;100206.0;;;-2.11;64.4
23361;BME280;11852;50.082;18.554;2023-02-10T03:02:53;100208.5;;;-2.05;64.34
23361;BME280;11852;50.082;18.554;2023-02-10T03:04:01;100218.01;;;-1.94;64.07
23361;BME280;11852;50.082;18.554;2023-02-10T03:05:09;100213.5;;;-2.15;64.37
23361;BME280;11852;50.082;18.554;2023-02-10T03:06:16;100215.0;;;-1.95;63.94
23361;BME280;11852;50.082;18.554;2023-02-10T03:07:22;100214.5;;;-1.94;63.74
23361;BME280;11852;50.082;18.554;2023-02-10T03:08:33;100217.01;;;-2.12;64.17
23361;BME280;11852;50.082;18.554;2023-02-10T03:09:40;100218.01;;;-2.01;63.92
23361;BME280;11852;50.082;18.554;2023-02-10T03:10:48;100218.5;;;-2.01;63.77
23361;BME280;11852;50.082;18.554;2023-02-10T03:11:55;100212.5;;;-1.96;64.04
23361;BME280;11852;50.082;18.554;2023-02-10T03:13:04;100212.0;;;-2.03;63.85
23361;BME280;11852;50.082;18.554;2023-02-10T03:14:11;100216.0;;;-2.03;63.99
23361;BME280;11852;50.082;18.554;2023-02-10T03:15:22;100213.5;;;-1.97;63.78
23361;BME280;11852;50.082;18.554;2023-02-10T03:16:29;100222.5;;;-2.06;64.02
23361;BME280;11852;50.082;18.554;2023-02-10T03:17:36;100220.0;;;-2.05;63.78
23361;BME280;11852;50.082;18.554;2023-02-10T03:18:43;100220.49;;;-1.97;63.53
23361;BME280;11852;50.082;18.554;2023-02-10T03:19:52;100223.0;;;-1.94;63.5
23361;BME280;11852;50.082;18.554;2023-02-10T03:21:00;100224.0;;;-1.93;63.42
23361;BME280;11852;50.082;18.554;2023-02-10T03:22:07;100222.0;;;-1.98;63.53
23361;BME280;11852;50.082;18.554;2023-02-10T03:23:15;100219.99;;;-2.01;63.64
23361;BME280;11852;50.082;18.554;2023-02-10T03:24:21;100218.5;;;-2.01;63.53
23361;BME280;11852;50.082;18.554;2023-02-10T03:25:29;100221.0;;;-1.92;63.28
23361;BME280;11852;50.082;18.554;2023-02-10T03:26:36;100219.0;;;-1.98;63.53
23361;BME280;11852;50.082;18.554;2023-02-10T03:27:43;100219.5;;;-2.01;63.29
23361;BME280;11852;50.082;18.554;2023-02-10T03:28:50;100219.0;;;-2.02;63.46
23361;BME280;11852;50.082;18.554;2023-02-10T03:29:57;100225.0;;;-2.06;63.59
23361;BME280;11852;50.082;18.554;2023-02-10T03:31:05;100222.5;;;-1.91;63.28
23361;BME280;11852;50.082;18.554;2023-02-10T03:32:14;100220.49;;;-1.96;63.4
23361;BME280;11852;50.082;18.554;2023-02-10T03:33:21;100216.5;;;-2.08;63.68
23361;BME280;11852;50.082;18.554;2023-02-10T03:34:28;100210.0;;;-2.01;63.45
23361;BME280;11852;50.082;18.554;2023-02-10T03:35:37;100213.0;;;-2.13;63.87
23361;BME280;11852;50.082;18.554;2023-02-10T03:36:44;100206.5;;;-2.12;63.83
23361;BME280;11852;50.082;18.554;2023-02-10T03:37:51;100211.5;;;-2.07;63.69
23361;BME280;11852;50.082;18.554;2023-02-10T03:38:58;100212.0;;;-2.2;63.85
23361;BME280;11852;50.082;18.554;2023-02-10T03:40:08;100211.0;;;-2.15;63.65
23361;BME280;11852;50.082;18.554;2023-02-10T03:41:12;100213.0;;;-1.98;63.29
23361;BME280;11852;50.082;18.554;2023-02-10T03:42:19;100211.5;;;-2.13;63.64
23361;BME280;11852;50.082;18.554;2023-02-10T03:43:26;100216.0;;;-2.13;63.53
23361;BME280;11852;50.082;18.554;2023-02-10T03:44:33;100218.01;;;-2.14;63.58
23361;BME280;11852;50.082;18.554;2023-02-10T03:45:41;100221.0;;;-2.17;63.42
23361;BME280;11852;50.082;18.554;2023-02-10T03:46:48;100224.5;;;-2.03;63.34
23361;BME280;11852;50.082;18.554;2023-02-10T03:47:55;100227.5;;;-2.1;63.43
23361;BME280;11852;50.082;18.554;2023-02-10T03:49:03;100230.5;;;-2.13;63.52
23361;BME280;11852;50.082;18.554;2023-02-10T03:50:09;100235.0;;;-2.06;63.32
23361;BME280;11852;50.082;18.554;2023-02-10T03:51:16;100233.5;;;-2.04;63.4
23361;BME280;11852;50.082;18.554;2023-02-10T03:52:23;100233.5;;;-2.06;63.31
23361;BME280;11852;50.082;18.554;2023-02-10T03:53:31;100229.0;;;-2.22;63.92
23361;BME280;11852;50.082;18.554;2023-02-10T03:54:38;100229.5;;;-2.16;63.5
23361;BME280;11852;50.082;18.554;2023-02-10T03:55:45;100231.99;;;-2.16;63.75
23361;BME280;11852;50.082;18.554;2023-02-10T03:56:52;100233.5;;;-2.19;63.58
23361;BME280;11852;50.082;18.554;2023-02-10T03:58:00;100231.0;;;-2.13;63.53
23361;BME280;11852;50.082;18.554;2023-02-10T03:59:07;100230.5;;;-2.13;63.54
23361;BME280;11852;50.082;18.554;2023-02-10T04:00:14;100230.5;;;-2.11;63.42
23361;BME280;11852;50.082;18.554;2023-02-10T04:01:22;100231.5;;;-2.05;63.31
23361;BME280;11852;50.082;18.554;2023-02-10T04:02:29;100230.51;;;-2.18;63.39
23361;BME280;11852;50.082;18.554;2023-02-10T04:03:37;100229.51;;;-2.13;63.2
23361;BME280;11852;50.082;18.554;2023-02-10T04:04:45;100228.5;;;-2.09;63.29
23361;BME280;11852;50.082;18.554;2023-02-10T04:05:55;100230.01;;;-2.16;63.52
23361;BME280;11852;50.082;18.554;2023-02-10T04:07:02;100228.0;;;-2.14;63.29
23361;BME280;11852;50.082;18.554;2023-02-10T04:08:09;100225.0;;;-2.11;63.15
23361;BME280;11852;50.082;18.554;2023-02-10T04:09:18;100227.5;;;-2.26;63.58
23361;BME280;11852;50.082;18.554;2023-02-10T04:10:25;100222.5;;;-2.19;63.43
23361;BME280;11852;50.082;18.554;2023-02-10T04:11:33;100218.51;;;-2.22;63.67
23361;BME280;11852;50.082;18.554;2023-02-10T04:12:39;100219.0;;;-2.3;63.89
23361;BME280;11852;50.082;18.554;2023-02-10T04:13:46;100215.5;;;-2.41;64.1
23361;BME280;11852;50.082;18.554;2023-02-10T04:14:53;100218.01;;;-2.37;63.99
23361;BME280;11852;50.082;18.554;2023-02-10T04:16:05;100217.01;;;-2.38;64.01
23361;BME280;11852;50.082;18.554;2023-02-10T04:17:11;100217.51;;;-2.29;63.67
23361;BME280;11852;50.082;18.554;2023-02-10T04:18:17;100217.51;;;-2.29;63.65
23361;BME280;11852;50.082;18.554;2023-02-10T04:19:25;100217.01;;;-2.28;63.62
23361;BME280;11852;50.082;18.554;2023-02-10T04:20:35;100219.5;;;-2.35;63.46
23361;BME280;11852;50.082;18.554;2023-02-10T04:21:42;100217.01;;;-2.36;63.24
23361;BME280;11852;50.082;18.554;2023-02-10T04:22:50;100215.0;;;-2.26;63.06
23361;BME280;11852;50.082;18.554;2023-02-10T04:23:57;100213.5;;;-2.28;63.06
23361;BME280;11852;50.082;18.554;2023-02-10T04:25:04;100211.5;;;-2.37;63.19
23361;BME280;11852;50.082;18.554;2023-02-10T04:26:10;100216.0;;;-2.42;62.99
23361;BME280;11852;50.082;18.554;2023-02-10T04:27:19;100211.0;;;-2.3;62.65
23361;BME280;11852;50.082;18.554;2023-02-10T04:28:26;100207.49;;;-2.43;63.08
23361;BME280;11852;50.082;18.554;2023-02-10T04:29:36;100216.5;;;-2.26;62.46
23361;BME280;11852;50.082;18.554;2023-02-10T04:30:42;100218.0;;;-2.19;62.42
23361;BME280;11852;50.082;18.554;2023-02-10T04:31:50;100220.5;;;-2.22;62.32
23361;BME280;11852;50.082;18.554;2023-02-10T04:32:59;100225.5;;;-2.13;62.23
23361;BME280;11852;50.082;18.554;2023-02-10T04:34:06;100225.0;;;-2.24;62.63
23361;BME280;11852;50.082;18.554;2023-02-10T04:35:17;100226.5;;;-2.28;62.76
23361;BME280;11852;50.082;18.554;2023-02-10T04:36:21;100227.5;;;-2.36;62.85
23361;BME280;11852;50.082;18.554;2023-02-10T04:37:28;100228.5;;;-2.26;62.55
23361;BME280;11852;50.082;18.554;2023-02-10T04:38:35;100224.0;;;-2.36;62.72
23361;BME280;11852;50.082;18.554;2023-02-10T04:39:42;100224.0;;;-2.22;62.5
23361;BME280;11852;50.082;18.554;2023-02-10T04:40:50;100223.0;;;-2.22;62.53
23361;BME280;11852;50.082;18.554;2023-02-10T04:42:01;100221.5;;;-2.25;62.67
23361;BME280;11852;50.082;18.554;2023-02-10T04:43:08;100222.0;;;-2.24;62.71
23361;BME280;11852;50.082;18.554;2023-02-10T04:44:15;100225.0;;;-2.14;62.34
23361;BME280;11852;50.082;18.554;2023-02-10T04:45:21;100229.51;;;-2.32;62.78
23361;BME280;11852;50.082;18.554;2023-02-10T04:46:28;100231.0;;;-2.23;62.28
23361;BME280;11852;50.082;18.554;2023-02-10T04:47:37;100232.5;;;-2.16;62.22
23361;BME280;11852;50.082;18.554;2023-02-10T04:48:45;100234.5;;;-2.24;62.43
23361;BME280;11852;50.082;18.554;2023-02-10T04:49:52;100234.0;;;-2.2;62.36
23361;BME280;11852;50.082;18.554;2023-02-10T04:51:05;100236.5;;;-2.29;62.58
23361;BME280;11852;50.082;18.554;2023-02-10T04:52:07;100236.5;;;-2.23;62.34
23361;BME280;11852;50.082;18.554;2023-02-10T04:53:16;100240.5;;;-2.28;62.39
23361;BME280;11852;50.082;18.554;2023-02-10T04:54:25;100243.01;;;-2.38;62.65
23361;BME280;11852;50.082;18.554;2023-02-10T04:55:33;100245.49;;;-2.36;62.78
23361;BME280;11852;50.082;18.554;2023-02-10T04:56:41;100247.0;;;-2.41;63.01
23361;BME280;11852;50.082;18.554;2023-02-10T04:57:48;100250.5;;;-2.3;62.65
23361;BME280;11852;50.082;18.554;2023-02-10T04:58:55;100250.0;;;-2.36;62.83
23361;BME280;11852;50.082;18.554;2023-02-10T05:00:05;100247.5;;;-2.33;62.74
23361;BME280;11852;50.082;18.554;2023-02-10T05:01:13;100247.0;;;-2.24;62.51
23361;BME280;11852;50.082;18.554;2023-02-10T05:02:20;100243.0;;;-2.34;62.82
23361;BME280;11852;50.082;18.554;2023-02-10T05:03:27;100238.0;;;-2.33;62.74
23361;BME280;11852;50.082;18.554;2023-02-10T05:04:34;100238.5;;;-2.36;62.83
23361;BME280;11852;50.082;18.554;2023-02-10T05:05:41;100238.5;;;-2.3;62.68
23361;BME280;11852;50.082;18.554;2023-02-10T05:06:50;100235.5;;;-2.38;62.79
23361;BME280;11852;50.082;18.554;2023-02-10T05:07:56;100237.5;;;-2.41;62.82
23361;BME280;11852;50.082;18.554;2023-02-10T05:09:05;100238.0;;;-2.43;62.91
23361;BME280;11852;50.082;18.554;2023-02-10T05:10:12;100235.0;;;-2.4;62.74
23361;BME280;11852;50.082;18.554;2023-02-10T05:11:19;100237.5;;;-2.38;62.72
23361;BME280;11852;50.082;18.554;2023-02-10T05:12:26;100240.0;;;-2.33;62.72
23361;BME280;11852;50.082;18.554;2023-02-10T05:13:37;100245.49;;;-2.38;62.74
23361;BME280;11852;50.082;18.554;2023-02-10T05:14:43;100246.0;;;-2.44;62.93
23361;BME280;11852;50.082;18.554;2023-02-10T05:15:51;100248.5;;;-2.48;63.15
23361;BME280;11852;50.082;18.554;2023-02-10T05:16:58;100247.0;;;-2.46;63.1
23361;BME280;11852;50.082;18.554;2023-02-10T05:18:07;100246.5;;;-2.41;63.03
23361;BME280;11852;50.082;18.554;2023-02-10T05:19:14;100248.0;;;-2.38;63.04
23361;BME280;11852;50.082;18.554;2023-02-10T05:20:20;100244.0;;;-2.4;63.15
23361;BME280;11852;50.082;18.554;2023-02-10T05:21:27;100243.5;;;-2.37;63.11
23361;BME280;11852;50.082;18.554;2023-02-10T05:22:37;100249.0;;;-2.38;63.15
23361;BME280;11852;50.082;18.554;2023-02-10T05:23:44;100247.0;;;-2.49;63.44
23361;BME280;11852;50.082;18.554;2023-02-10T05:24:51;100244.0;;;-2.33;63.14
23361;BME280;11852;50.082;18.554;2023-02-10T05:25:58;100251.0;;;-2.39;63.32
23361;BME280;11852;50.082;18.554;2023-02-10T05:27:07;100254.0;;;-2.47;63.56
23361;BME280;11852;50.082;18.554;2023-02-10T05:28:15;100252.0;;;-2.57;63.98
23361;BME280;11852;50.082;18.554;2023-02-10T05:29:22;100262.5;;;-2.54;63.72
23361;BME280;11852;50.082;18.554;2023-02-10T05:30:30;100261.5;;;-2.49;63.68
23361;BME280;11852;50.082;18.554;2023-02-10T05:31:38;100264.5;;;-2.54;63.96
23361;BME280;11852;50.082;18.554;2023-02-10T05:32:45;100268.5;;;-2.44;63.57
23361;BME280;11852;50.082;18.554;2023-02-10T05:35:01;100270.0;;;-2.49;63.63
23361;BME280;11852;50.082;18.554;2023-02-10T05:36:08;100272.5;;;-2.45;63.64
23361;BME280;11852;50.082;18.554;2023-02-10T05:37:15;100270.5;;;-2.45;63.76
23361;BME280;11852;50.082;18.554;2023-02-10T05:38:25;100273.5;;;-2.57;64.11
23361;BME280;11852;50.082;18.554;2023-02-10T05:39:32;100274.5;;;-2.53;64.08
23361;BME280;11852;50.082;18.554;2023-02-10T05:40:39;100279.0;;;-2.51;63.94
23361;BME280;11852;50.082;18.554;2023-02-10T05:41:45;100276.5;;;-2.53;63.99
23361;BME280;11852;50.082;18.554;2023-02-10T05:42:52;100286.0;;;-2.5;64.05
23361;BME280;11852;50.082;18.554;2023-02-10T05:43:59;100289.5;;;-2.49;64.09
23361;BME280;11852;50.082;18.554;2023-02-10T05:45:06;100291.5;;;-2.47;64.02
23361;BME280;11852;50.082;18.554;2023-02-10T05:46:13;100293.01;;;-2.4;63.75
23361;BME280;11852;50.082;18.554;2023-02-10T05:47:20;100293.51;;;-2.32;63.64
23361;BME280;11852;50.082;18.554;2023-02-10T05:48:28;100297.0;;;-2.35;63.78
23361;BME280;11852;50.082;18.554;2023-02-10T05:49:37;100296.0;;;-2.37;63.78
23361;BME280;11852;50.082;18.554;2023-02-10T05:50:48;100298.5;;;-2.53;64.12
23361;BME280;11852;50.082;18.554;2023-02-10T05:51:52;100295.5;;;-2.47;63.9
23361;BME280;11852;50.082;18.554;2023-02-10T05:52:59;100296.0;;;-2.51;64.12
23361;BME280;11852;50.082;18.554;2023-02-10T05:54:08;100298.0;;;-2.48;64.15
23361;BME280;11852;50.082;18.554;2023-02-10T05:55:14;100299.0;;;-2.53;64.32
23361;BME280;11852;50.082;18.554;2023-02-10T05:56:24;100294.0;;;-2.56;64.3
23361;BME280;11852;50.082;18.554;2023-02-10T05:57:31;100297.5;;;-2.48;64.25
23361;BME280;11852;50.082;18.554;2023-02-10T05:58:40;100299.0;;;-2.45;64.18
23361;BME280;11852;50.082;18.554;2023-02-10T05:59:47;100296.5;;;-2.49;64.28
23361;BME280;11852;50.082;18.554;2023-02-10T06:00:57;100297.0;;;-2.54;64.4
23361;BME280;11852;50.082;18.554;2023-02-10T06:02:04;100295.0;;;-2.5;64.32
23361;BME280;11852;50.082;18.554;2023-02-10T06:03:13;100295.0;;;-2.63;64.72
23361;BME280;11852;50.082;18.554;2023-02-10T06:04:21;100295.5;;;-2.64;64.69
23361;BME280;11852;50.082;18.554;2023-02-10T06:05:31;100294.99;;;-2.54;64.41
23361;BME280;11852;50.082;18.554;2023-02-10T06:06:35;100294.5;;;-2.54;64.48
23361;BME280;11852;50.082;18.554;2023-02-10T06:07:42;100297.0;;;-2.57;64.57
23361;BME280;11852;50.082;18.554;2023-02-10T06:08:49;100298.0;;;-2.45;64.31
23361;BME280;11852;50.082;18.554;2023-02-10T06:09:57;100299.5;;;-2.57;64.6
23361;BME280;11852;50.082;18.554;2023-02-10T06:11:04;100301.0;;;-2.58;64.69
23361;BME280;11852;50.082;18.554;2023-02-10T06:12:11;100298.5;;;-2.6;64.72
23361;BME280;11852;50.082;18.554;2023-02-10T06:13:17;100298.0;;;-2.59;64.7
23361;BME280;11852;50.082;18.554;2023-02-10T06:14:24;100308.5;;;-2.6;64.69
23361;BME280;11852;50.082;18.554;2023-02-10T06:15:32;100308.0;;;-2.6;64.72
23361;BME280;11852;50.082;18.554;2023-02-10T06:16:43;100311.5;;;-2.55;64.57